sensor_id;sensor_type;location;lat;lon;timestamp;P1;durP1;ratioP1;P2;durP2;ratioP2
73599;SDS011;61877;48.246;9.220;2023-02-28T00:01:53;12.83;;;6.93;;
73599;SDS011;61877;48.246;9.220;2023-02-28T00:04:18;11.80;;;6.93;;
73599;SDS011;61877;48.246;9.220;2023-02-28T00:06:43;11.33;;;6.57;;
73599;SDS011;61877;48.246;9.220;2023-02-28T00:09:09;13.93;;;7.27;;
73599;SDS011;61877;48.246;9.220;2023-02-28T00:11:35;12.70;;;6.97;;
73599;SDS011;61877;48.246;9.220;2023-02-28T00:14:01;12.47;;;7.00;;
73599;SDS011;61877;48.246;9.220;2023-02-28T00:16:26;12.90;;;7.22;;
73599;SDS011;61877;48.246;9.220;2023-02-28T00:18:52;13.07;;;8.00;;
73599;SDS011;61877;48.246;9.220;2023-02-28T00:21:18;13.60;;;7.73;;
73599;SDS011;61877;48.246;9.220;2023-02-28T00:23:44;14.57;;;7.38;;
73599;SDS011;61877;48.246;9.220;2023-02-28T00:26:09;12.83;;;7.23;;
73599;SDS011;61877;48.246;9.220;2023-02-28T00:28:36;12.57;;;7.05;;
73599;SDS011;61877;48.246;9.220;2023-02-28T00:31:01;12.57;;;7.40;;
73599;SDS011;61877;48.246;9.220;2023-02-28T00:33:27;11.98;;;6.90;;
73599;SDS011;61877;48.246;9.220;2023-02-28T00:36:00;11.73;;;6.87;;
73599;SDS011;61877;48.246;9.220;2023-02-28T00:38:26;13.88;;;6.95;;
73599;SDS011;61877;48.246;9.220;2023-02-28T00:40:51;12.73;;;7.30;;
73599;SDS011;61877;48.246;9.220;2023-02-28T00:43:17;13.07;;;7.00;;
73599;SDS011;61877;48.246;9.220;2023-02-28T00:45:43;12.43;;;6.37;;
73599;SDS011;61877;48.246;9.220;2023-02-28T00:48:09;12.32;;;7.30;;
73599;SDS011;61877;48.246;9.220;2023-02-28T00:50:34;11.83;;;6.77;;
73599;SDS011;61877;48.246;9.220;2023-02-28T00:53:00;12.77;;;7.13;;
73599;SDS011;61877;48.246;9.220;2023-02-28T00:55:25;13.10;;;7.00;;
73599;SDS011;61877;48.246;9.220;2023-02-28T00:57:50;13.13;;;6.82;;
73599;SDS011;61877;48.246;9.220;2023-02-28T01:00:16;12.63;;;7.23;;
73599;SDS011;61877;48.246;9.220;2023-02-28T01:02:43;12.57;;;6.97;;
73599;SDS011;61877;48.246;9.220;2023-02-28T01:05:08;12.32;;;7.03;;
73599;SDS011;61877;48.246;9.220;2023-02-28T01:07:34;12.67;;;6.77;;
73599;SDS011;61877;48.246;9.220;2023-02-28T01:09:59;12.57;;;6.80;;
73599;SDS011;61877;48.246;9.220;2023-02-28T01:12:24;12.50;;;6.73;;
73599;SDS011;61877;48.246;9.220;2023-02-28T01:14:50;12.17;;;6.80;;
73599;SDS011;61877;48.246;9.220;2023-02-28T01:17:15;14.87;;;6.33;;
73599;SDS011;61877;48.246;9.220;2023-02-28T01:19:42;14.47;;;7.40;;
73599;SDS011;61877;48.246;9.220;2023-02-28T01:22:07;12.38;;;7.03;;
73599;SDS011;61877;48.246;9.220;2023-02-28T01:24:32;12.53;;;7.03;;
73599;SDS011;61877;48.246;9.220;2023-02-28T01:26:58;12.98;;;6.82;;
73599;SDS011;61877;48.246;9.220;2023-02-28T01:29:23;13.07;;;7.37;;
73599;SDS011;61877;48.246;9.220;2023-02-28T01:31:49;13.27;;;7.23;;
73599;SDS011;61877;48.246;9.220;2023-02-28T01:34:14;12.73;;;7.07;;
73599;SDS011;61877;48.246;9.220;2023-02-28T01:36:41;14.43;;;6.97;;
73599;SDS011;61877;48.246;9.220;2023-02-28T01:39:06;13.20;;;7.10;;
73599;SDS011;61877;48.246;9.220;2023-02-28T01:41:32;11.63;;;6.87;;
73599;SDS011;61877;48.246;9.220;2023-02-28T01:44:00;13.38;;;7.20;;
73599;SDS011;61877;48.246;9.220;2023-02-28T01:46:28;12.60;;;7.40;;
73599;SDS011;61877;48.246;9.220;2023-02-28T01:48:54;14.13;;;7.43;;
73599;SDS011;61877;48.246;9.220;2023-02-28T01:51:26;11.80;;;7.07;;
73599;SDS011;61877;48.246;9.220;2023-02-28T01:53:58;11.80;;;6.63;;
73599;SDS011;61877;48.246;9.220;2023-02-28T01:56:27;12.77;;;7.13;;
73599;SDS011;61877;48.246;9.220;2023-02-28T01:58:55;13.27;;;7.13;;
73599;SDS011;61877;48.246;9.220;2023-02-28T02:01:21;14.63;;;7.55;;
73599;SDS011;61877;48.246;9.220;2023-02-28T02:03:48;12.73;;;7.03;;
73599;SDS011;61877;48.246;9.220;2023-02-28T02:06:14;14.10;;;7.40;;
73599;SDS011;61877;48.246;9.220;2023-02-28T02:08:40;14.07;;;7.40;;
73599;SDS011;61877;48.246;9.220;2023-02-28T02:11:07;12.93;;;7.50;;
73599;SDS011;61877;48.246;9.220;2023-02-28T02:13:46;13.43;;;6.75;;
73599;SDS011;61877;48.246;9.220;2023-02-28T02:16:25;12.87;;;6.47;;
73599;SDS011;61877;48.246;9.220;2023-02-28T02:19:05;12.25;;;6.82;;
73599;SDS011;61877;48.246;9.220;2023-02-28T02:21:47;12.98;;;7.35;;
73599;SDS011;61877;48.246;9.220;2023-02-28T02:24:54;11.50;;;6.40;;
73599;SDS011;61877;48.246;9.220;2023-02-28T02:30:33;13.07;;;6.60;;
73599;SDS011;61877;48.246;9.220;2023-02-28T02:36:17;12.50;;;7.10;;
73599;SDS011;61877;48.246;9.220;2023-02-28T02:38:48;13.25;;;6.68;;
73599;SDS011;61877;48.246;9.220;2023-02-28T02:41:19;12.55;;;7.10;;
73599;SDS011;61877;48.246;9.220;2023-02-28T02:43:52;12.07;;;7.20;;
73599;SDS011;61877;48.246;9.220;2023-02-28T02:46:24;12.15;;;6.93;;
73599;SDS011;61877;48.246;9.220;2023-02-28T02:48:54;13.05;;;7.20;;
73599;SDS011;61877;48.246;9.220;2023-02-28T02:51:24;12.90;;;7.35;;
73599;SDS011;61877;48.246;9.220;2023-02-28T02:53:52;13.23;;;7.05;;
73599;SDS011;61877;48.246;9.220;2023-02-28T02:56:23;11.93;;;7.17;;
73599;SDS011;61877;48.246;9.220;2023-02-28T02:58:51;13.38;;;6.88;;
73599;SDS011;61877;48.246;9.220;2023-02-28T03:01:21;13.00;;;7.03;;
73599;SDS011;61877;48.246;9.220;2023-02-28T03:03:50;12.77;;;7.15;;
73599;SDS011;61877;48.246;9.220;2023-02-28T03:06:15;12.27;;;6.97;;
73599;SDS011;61877;48.246;9.220;2023-02-28T03:08:42;13.03;;;7.23;;
73599;SDS011;61877;48.246;9.220;2023-02-28T03:11:11;13.18;;;7.68;;
73599;SDS011;61877;48.246;9.220;2023-02-28T03:13:49;13.07;;;7.60;;
73599;SDS011;61877;48.246;9.220;2023-02-28T03:16:34;13.30;;;7.57;;
73599;SDS011;61877;48.246;9.220;2023-02-28T03:19:10;15.30;;;7.63;;
73599;SDS011;61877;48.246;9.220;2023-02-28T03:21:46;13.50;;;7.40;;
73599;SDS011;61877;48.246;9.220;2023-02-28T03:24:23;16.58;;;8.35;;
73599;SDS011;61877;48.246;9.220;2023-02-28T03:26:54;14.35;;;7.47;;
73599;SDS011;61877;48.246;9.220;2023-02-28T03:29:23;14.32;;;7.97;;
73599;SDS011;61877;48.246;9.220;2023-02-28T03:31:54;13.83;;;7.50;;
73599;SDS011;61877;48.246;9.220;2023-02-28T03:34:25;13.27;;;7.22;;
73599;SDS011;61877;48.246;9.220;2023-02-28T03:36:57;14.00;;;7.70;;
73599;SDS011;61877;48.246;9.220;2023-02-28T03:39:31;13.43;;;7.40;;
73599;SDS011;61877;48.246;9.220;2023-02-28T03:42:02;13.48;;;7.63;;
73599;SDS011;61877;48.246;9.220;2023-02-28T03:44:32;13.77;;;7.23;;
73599;SDS011;61877;48.246;9.220;2023-02-28T03:47:04;12.82;;;6.82;;
73599;SDS011;61877;48.246;9.220;2023-02-28T03:49:34;12.70;;;7.20;;
73599;SDS011;61877;48.246;9.220;2023-02-28T03:52:04;13.45;;;7.53;;
73599;SDS011;61877;48.246;9.220;2023-02-28T03:54:35;15.38;;;7.88;;
73599;SDS011;61877;48.246;9.220;2023-02-28T03:57:07;14.20;;;7.47;;
73599;SDS011;61877;48.246;9.220;2023-02-28T03:59:37;14.68;;;7.70;;
73599;SDS011;61877;48.246;9.220;2023-02-28T04:02:07;14.02;;;8.00;;
73599;SDS011;61877;48.246;9.220;2023-02-28T04:04:33;13.88;;;7.80;;
73599;SDS011;61877;48.246;9.220;2023-02-28T04:07:02;15.77;;;7.55;;
73599;SDS011;61877;48.246;9.220;2023-02-28T04:09:29;13.47;;;7.40;;
73599;SDS011;61877;48.246;9.220;2023-02-28T04:11:56;14.70;;;7.63;;
73599;SDS011;61877;48.246;9.220;2023-02-28T04:14:21;13.63;;;7.73;;
73599;SDS011;61877;48.246;9.220;2023-02-28T04:16:47;13.70;;;7.57;;
73599;SDS011;61877;48.246;9.220;2023-02-28T04:19:12;14.80;;;7.60;;
73599;SDS011;61877;48.246;9.220;2023-02-28T04:21:40;14.20;;;7.22;;
73599;SDS011;61877;48.246;9.220;2023-02-28T04:24:07;13.68;;;7.75;;
73599;SDS011;61877;48.246;9.220;2023-02-28T04:26:34;14.30;;;7.80;;
73599;SDS011;61877;48.246;9.220;2023-02-28T04:29:03;13.93;;;7.43;;
73599;SDS011;61877;48.246;9.220;2023-02-28T04:31:29;13.65;;;7.25;;
73599;SDS011;61877;48.246;9.220;2023-02-28T04:33:55;14.13;;;7.47;;
73599;SDS011;61877;48.246;9.220;2023-02-28T04:36:20;14.13;;;7.60;;
73599;SDS011;61877;48.246;9.220;2023-02-28T04:38:46;14.17;;;8.20;;
73599;SDS011;61877;48.246;9.220;2023-02-28T04:41:11;14.93;;;7.67;;
73599;SDS011;61877;48.246;9.220;2023-02-28T04:43:37;13.70;;;7.50;;
73599;SDS011;61877;48.246;9.220;2023-02-28T04:46:04;14.03;;;7.97;;
73599;SDS011;61877;48.246;9.220;2023-02-28T04:48:31;14.25;;;7.75;;
73599;SDS011;61877;48.246;9.220;2023-02-28T04:50:59;14.37;;;7.43;;
73599;SDS011;61877;48.246;9.220;2023-02-28T04:53:25;17.40;;;7.93;;
73599;SDS011;61877;48.246;9.220;2023-02-28T04:55:52;14.43;;;7.90;;
73599;SDS011;61877;48.246;9.220;2023-02-28T04:58:17;16.43;;;8.23;;
73599;SDS011;61877;48.246;9.220;2023-02-28T05:00:42;14.60;;;8.33;;
73599;SDS011;61877;48.246;9.220;2023-02-28T05:03:09;15.38;;;7.75;;
73599;SDS011;61877;48.246;9.220;2023-02-28T05:05:35;14.17;;;7.80;;
73599;SDS011;61877;48.246;9.220;2023-02-28T05:08:00;14.05;;;7.75;;
73599;SDS011;61877;48.246;9.220;2023-02-28T05:10:25;14.90;;;8.03;;
73599;SDS011;61877;48.246;9.220;2023-02-28T05:12:51;15.17;;;7.47;;
73599;SDS011;61877;48.246;9.220;2023-02-28T05:15:16;16.03;;;8.07;;
73599;SDS011;61877;48.246;9.220;2023-02-28T05:17:43;15.05;;;8.15;;
73599;SDS011;61877;48.246;9.220;2023-02-28T05:20:10;14.83;;;7.90;;
73599;SDS011;61877;48.246;9.220;2023-02-28T05:22:36;15.10;;;8.23;;
73599;SDS011;61877;48.246;9.220;2023-02-28T05:25:02;15.48;;;7.75;;
73599;SDS011;61877;48.246;9.220;2023-02-28T05:27:28;15.52;;;8.27;;
73599;SDS011;61877;48.246;9.220;2023-02-28T05:29:53;16.43;;;8.77;;
73599;SDS011;61877;48.246;9.220;2023-02-28T05:32:18;15.43;;;8.13;;
73599;SDS011;61877;48.246;9.220;2023-02-28T05:34:44;16.67;;;8.57;;
73599;SDS011;61877;48.246;9.220;2023-02-28T05:37:12;12.60;;;7.18;;
73599;SDS011;61877;48.246;9.220;2023-02-28T05:39:38;16.80;;;8.30;;
73599;SDS011;61877;48.246;9.220;2023-02-28T05:42:03;16.38;;;8.07;;
73599;SDS011;61877;48.246;9.220;2023-02-28T05:44:29;15.43;;;8.47;;
73599;SDS011;61877;48.246;9.220;2023-02-28T05:46:54;15.90;;;8.88;;
73599;SDS011;61877;48.246;9.220;2023-02-28T05:49:20;16.97;;;8.93;;
73599;SDS011;61877;48.246;9.220;2023-02-28T05:51:45;17.13;;;9.00;;
73599;SDS011;61877;48.246;9.220;2023-02-28T05:54:12;17.40;;;9.33;;
73599;SDS011;61877;48.246;9.220;2023-02-28T05:56:37;17.45;;;8.73;;
73599;SDS011;61877;48.246;9.220;2023-02-28T05:59:03;16.90;;;8.47;;
73599;SDS011;61877;48.246;9.220;2023-02-28T06:01:32;17.27;;;8.43;;
73599;SDS011;61877;48.246;9.220;2023-02-28T06:03:59;14.50;;;7.77;;
73599;SDS011;61877;48.246;9.220;2023-02-28T06:06:24;17.75;;;9.35;;
73599;SDS011;61877;48.246;9.220;2023-02-28T06:08:50;17.97;;;8.63;;
73599;SDS011;61877;48.246;9.220;2023-02-28T06:11:17;15.77;;;8.27;;
73599;SDS011;61877;48.246;9.220;2023-02-28T06:13:42;17.10;;;9.20;;
73599;SDS011;61877;48.246;9.220;2023-02-28T06:16:07;17.13;;;8.13;;
73599;SDS011;61877;48.246;9.220;2023-02-28T06:18:35;18.33;;;9.50;;
73599;SDS011;61877;48.246;9.220;2023-02-28T06:21:00;16.73;;;8.47;;
73599;SDS011;61877;48.246;9.220;2023-02-28T06:23:25;16.93;;;9.37;;
73599;SDS011;61877;48.246;9.220;2023-02-28T06:25:51;18.20;;;8.83;;
73599;SDS011;61877;48.246;9.220;2023-02-28T06:28:17;19.50;;;9.13;;
73599;SDS011;61877;48.246;9.220;2023-02-28T06:30:43;17.10;;;8.98;;
73599;SDS011;61877;48.246;9.220;2023-02-28T06:33:08;19.37;;;9.47;;
73599;SDS011;61877;48.246;9.220;2023-02-28T06:35:34;19.53;;;9.23;;
73599;SDS011;61877;48.246;9.220;2023-02-28T06:37:59;19.58;;;9.20;;
73599;SDS011;61877;48.246;9.220;2023-02-28T06:40:24;20.43;;;9.87;;
73599;SDS011;61877;48.246;9.220;2023-02-28T06:42:50;20.03;;;8.40;;
73599;SDS011;61877;48.246;9.220;2023-02-28T06:45:16;19.10;;;9.33;;
73599;SDS011;61877;48.246;9.220;2023-02-28T06:47:42;16.83;;;9.20;;
73599;SDS011;61877;48.246;9.220;2023-02-28T06:50:08;17.67;;;8.70;;
73599;SDS011;61877;48.246;9.220;2023-02-28T06:52:35;22.50;;;11.07;;
73599;SDS011;61877;48.246;9.220;2023-02-28T06:55:00;19.73;;;9.07;;
73599;SDS011;61877;48.246;9.220;2023-02-28T06:57:26;19.23;;;9.37;;
73599;SDS011;61877;48.246;9.220;2023-02-28T06:59:53;16.67;;;8.27;;
73599;SDS011;61877;48.246;9.220;2023-02-28T07:02:19;18.57;;;9.10;;
73599;SDS011;61877;48.246;9.220;2023-02-28T07:04:45;19.90;;;9.67;;
73599;SDS011;61877;48.246;9.220;2023-02-28T07:07:10;17.13;;;8.70;;
73599;SDS011;61877;48.246;9.220;2023-02-28T07:09:35;17.07;;;9.03;;
73599;SDS011;61877;48.246;9.220;2023-02-28T07:12:01;18.20;;;9.17;;
73599;SDS011;61877;48.246;9.220;2023-02-28T07:14:26;18.73;;;9.00;;
73599;SDS011;61877;48.246;9.220;2023-02-28T07:16:52;19.27;;;9.60;;
73599;SDS011;61877;48.246;9.220;2023-02-28T07:19:18;18.70;;;9.60;;
73599;SDS011;61877;48.246;9.220;2023-02-28T07:21:44;17.45;;;9.02;;
73599;SDS011;61877;48.246;9.220;2023-02-28T07:24:09;19.07;;;9.30;;
73599;SDS011;61877;48.246;9.220;2023-02-28T07:26:34;18.00;;;9.33;;
73599;SDS011;61877;48.246;9.220;2023-02-28T07:29:00;19.40;;;9.57;;
73599;SDS011;61877;48.246;9.220;2023-02-28T07:31:25;19.63;;;9.57;;
73599;SDS011;61877;48.246;9.220;2023-02-28T07:33:50;17.80;;;8.93;;
73599;SDS011;61877;48.246;9.220;2023-02-28T07:36:17;17.80;;;9.17;;
73599;SDS011;61877;48.246;9.220;2023-02-28T07:38:43;19.75;;;9.85;;
73599;SDS011;61877;48.246;9.220;2023-02-28T07:41:10;19.83;;;9.83;;
73599;SDS011;61877;48.246;9.220;2023-02-28T07:43:36;18.70;;;9.15;;
73599;SDS011;61877;48.246;9.220;2023-02-28T07:46:02;16.53;;;7.97;;
73599;SDS011;61877;48.246;9.220;2023-02-28T07:48:28;17.58;;;8.55;;
73599;SDS011;61877;48.246;9.220;2023-02-28T07:50:54;19.47;;;9.43;;
73599;SDS011;61877;48.246;9.220;2023-02-28T07:53:21;18.33;;;9.07;;
73599;SDS011;61877;48.246;9.220;2023-02-28T07:55:46;17.00;;;8.57;;
73599;SDS011;61877;48.246;9.220;2023-02-28T07:58:11;21.37;;;9.20;;
73599;SDS011;61877;48.246;9.220;2023-02-28T08:00:37;20.13;;;9.73;;
73599;SDS011;61877;48.246;9.220;2023-02-28T08:03:02;17.77;;;9.00;;
73599;SDS011;61877;48.246;9.220;2023-02-28T08:05:28;18.13;;;8.38;;
73599;SDS011;61877;48.246;9.220;2023-02-28T08:07:53;19.37;;;9.70;;
73599;SDS011;61877;48.246;9.220;2023-02-28T08:10:20;19.57;;;9.83;;
73599;SDS011;61877;48.246;9.220;2023-02-28T08:12:45;20.05;;;9.68;;
73599;SDS011;61877;48.246;9.220;2023-02-28T08:15:11;17.67;;;8.90;;
73599;SDS011;61877;48.246;9.220;2023-02-28T08:17:36;19.37;;;9.40;;
73599;SDS011;61877;48.246;9.220;2023-02-28T08:20:02;18.77;;;9.23;;
73599;SDS011;61877;48.246;9.220;2023-02-28T08:22:27;19.40;;;9.73;;
73599;SDS011;61877;48.246;9.220;2023-02-28T08:24:53;19.17;;;9.50;;
73599;SDS011;61877;48.246;9.220;2023-02-28T08:27:19;20.43;;;9.57;;
73599;SDS011;61877;48.246;9.220;2023-02-28T08:29:45;18.90;;;9.30;;
73599;SDS011;61877;48.246;9.220;2023-02-28T08:32:10;20.25;;;9.65;;
73599;SDS011;61877;48.246;9.220;2023-02-28T08:34:36;21.40;;;9.37;;
73599;SDS011;61877;48.246;9.220;2023-02-28T08:37:04;22.73;;;9.77;;
73599;SDS011;61877;48.246;9.220;2023-02-28T08:39:29;19.97;;;9.60;;
73599;SDS011;61877;48.246;9.220;2023-02-28T08:41:55;23.27;;;10.77;;
73599;SDS011;61877;48.246;9.220;2023-02-28T08:44:21;17.40;;;8.95;;
73599;SDS011;61877;48.246;9.220;2023-02-28T08:46:47;23.53;;;10.83;;
73599;SDS011;61877;48.246;9.220;2023-02-28T08:49:12;20.67;;;9.50;;
73599;SDS011;61877;48.246;9.220;2023-02-28T08:51:38;18.17;;;8.83;;
73599;SDS011;61877;48.246;9.220;2023-02-28T08:54:03;20.08;;;9.90;;
73599;SDS011;61877;48.246;9.220;2023-02-28T08:56:29;19.87;;;9.30;;
73599;SDS011;61877;48.246;9.220;2023-02-28T08:58:55;19.23;;;9.50;;
73599;SDS011;61877;48.246;9.220;2023-02-28T09:01:23;19.35;;;9.77;;
73599;SDS011;61877;48.246;9.220;2023-02-28T09:03:50;20.85;;;10.23;;
73599;SDS011;61877;48.246;9.220;2023-02-28T09:06:17;18.07;;;9.53;;
73599;SDS011;61877;48.246;9.220;2023-02-28T09:08:43;17.92;;;9.07;;
73599;SDS011;61877;48.246;9.220;2023-02-28T09:11:09;18.60;;;9.48;;
73599;SDS011;61877;48.246;9.220;2023-02-28T09:13:35;21.07;;;9.13;;
73599;SDS011;61877;48.246;9.220;2023-02-28T09:16:02;19.17;;;9.07;;
73599;SDS011;61877;48.246;9.220;2023-02-28T09:18:30;18.98;;;9.52;;
73599;SDS011;61877;48.246;9.220;2023-02-28T09:20:55;20.88;;;9.73;;
73599;SDS011;61877;48.246;9.220;2023-02-28T09:23:22;18.58;;;9.23;;
73599;SDS011;61877;48.246;9.220;2023-02-28T09:25:48;19.50;;;8.67;;
73599;SDS011;61877;48.246;9.220;2023-02-28T09:28:15;18.00;;;9.18;;
73599;SDS011;61877;48.246;9.220;2023-02-28T09:30:41;20.23;;;9.07;;
73599;SDS011;61877;48.246;9.220;2023-02-28T09:33:06;22.60;;;10.45;;
73599;SDS011;61877;48.246;9.220;2023-02-28T09:35:33;19.93;;;9.37;;
73599;SDS011;61877;48.246;9.220;2023-02-28T09:37:58;20.00;;;9.75;;
73599;SDS011;61877;48.246;9.220;2023-02-28T09:40:24;18.00;;;9.43;;
73599;SDS011;61877;48.246;9.220;2023-02-28T09:42:51;20.20;;;9.48;;
73599;SDS011;61877;48.246;9.220;2023-02-28T09:45:22;20.30;;;9.33;;
73599;SDS011;61877;48.246;9.220;2023-02-28T09:47:52;19.25;;;9.52;;
73599;SDS011;61877;48.246;9.220;2023-02-28T09:52:55;19.08;;;9.07;;
73599;SDS011;61877;48.246;9.220;2023-02-28T09:55:22;20.52;;;10.18;;
73599;SDS011;61877;48.246;9.220;2023-02-28T09:57:53;20.83;;;10.33;;
73599;SDS011;61877;48.246;9.220;2023-02-28T10:00:21;21.58;;;9.98;;
73599;SDS011;61877;48.246;9.220;2023-02-28T10:02:52;20.02;;;10.00;;
73599;SDS011;61877;48.246;9.220;2023-02-28T10:05:26;22.40;;;10.15;;
73599;SDS011;61877;48.246;9.220;2023-02-28T10:07:58;21.30;;;10.07;;
73599;SDS011;61877;48.246;9.220;2023-02-28T10:10:28;19.90;;;9.80;;
73599;SDS011;61877;48.246;9.220;2023-02-28T10:13:00;19.55;;;9.93;;
73599;SDS011;61877;48.246;9.220;2023-02-28T10:15:30;20.10;;;10.18;;
73599;SDS011;61877;48.246;9.220;2023-02-28T10:17:57;19.00;;;9.77;;
73599;SDS011;61877;48.246;9.220;2023-02-28T10:20:25;21.17;;;10.35;;
73599;SDS011;61877;48.246;9.220;2023-02-28T10:22:53;19.53;;;10.03;;
73599;SDS011;61877;48.246;9.220;2023-02-28T10:25:27;19.48;;;9.50;;
73599;SDS011;61877;48.246;9.220;2023-02-28T10:27:54;23.10;;;10.73;;
73599;SDS011;61877;48.246;9.220;2023-02-28T10:30:26;21.73;;;10.77;;
73599;SDS011;61877;48.246;9.220;2023-02-28T10:32:55;22.05;;;10.60;;
73599;SDS011;61877;48.246;9.220;2023-02-28T10:35:21;21.33;;;10.43;;
73599;SDS011;61877;48.246;9.220;2023-02-28T10:37:48;22.20;;;9.93;;
73599;SDS011;61877;48.246;9.220;2023-02-28T10:40:28;23.40;;;10.80;;
73599;SDS011;61877;48.246;9.220;2023-02-28T10:42:56;20.13;;;10.15;;
73599;SDS011;61877;48.246;9.220;2023-02-28T10:45:23;20.08;;;10.13;;
73599;SDS011;61877;48.246;9.220;2023-02-28T10:47:50;22.70;;;10.47;;
73599;SDS011;61877;48.246;9.220;2023-02-28T10:50:27;21.30;;;10.13;;
73599;SDS011;61877;48.246;9.220;2023-02-28T10:53:07;22.85;;;10.73;;
73599;SDS011;61877;48.246;9.220;2023-02-28T10:55:58;21.90;;;9.93;;
73599;SDS011;61877;48.246;9.220;2023-02-28T10:58:25;20.30;;;9.80;;
73599;SDS011;61877;48.246;9.220;2023-02-28T11:00:52;24.03;;;10.63;;
73599;SDS011;61877;48.246;9.220;2023-02-28T11:03:28;22.17;;;10.65;;
73599;SDS011;61877;48.246;9.220;2023-02-28T11:05:56;20.52;;;10.18;;
73599;SDS011;61877;48.246;9.220;2023-02-28T11:08:22;19.75;;;10.02;;
73599;SDS011;61877;48.246;9.220;2023-02-28T11:10:48;20.20;;;9.80;;
73599;SDS011;61877;48.246;9.220;2023-02-28T11:13:26;21.60;;;10.57;;
73599;SDS011;61877;48.246;9.220;2023-02-28T11:15:55;23.80;;;10.43;;
73599;SDS011;61877;48.246;9.220;2023-02-28T11:18:24;19.90;;;10.07;;
73599;SDS011;61877;48.246;9.220;2023-02-28T11:20:52;20.47;;;9.97;;
73599;SDS011;61877;48.246;9.220;2023-02-28T11:23:20;22.27;;;10.18;;
73599;SDS011;61877;48.246;9.220;2023-02-28T11:25:49;20.88;;;10.32;;
73599;SDS011;61877;48.246;9.220;2023-02-28T11:28:25;21.50;;;10.60;;
73599;SDS011;61877;48.246;9.220;2023-02-28T11:31:13;22.05;;;11.00;;
73599;SDS011;61877;48.246;9.220;2023-02-28T11:33:41;22.27;;;10.10;;
73599;SDS011;61877;48.246;9.220;2023-02-28T11:36:10;20.13;;;10.25;;
73599;SDS011;61877;48.246;9.220;2023-02-28T11:38:37;21.15;;;10.30;;
73599;SDS011;61877;48.246;9.220;2023-02-28T11:41:05;20.52;;;9.63;;
73599;SDS011;61877;48.246;9.220;2023-02-28T11:43:50;19.10;;;9.77;;
73599;SDS011;61877;48.246;9.220;2023-02-28T11:46:29;21.83;;;10.17;;
73599;SDS011;61877;48.246;9.220;2023-02-28T11:49:02;17.52;;;9.20;;
73599;SDS011;61877;48.246;9.220;2023-02-28T11:51:41;20.08;;;9.75;;
73599;SDS011;61877;48.246;9.220;2023-02-28T11:54:23;19.20;;;9.40;;
73599;SDS011;61877;48.246;9.220;2023-02-28T11:57:00;18.33;;;9.55;;
73599;SDS011;61877;48.246;9.220;2023-02-28T11:59:45;19.83;;;9.70;;
73599;SDS011;61877;48.246;9.220;2023-02-28T12:02:23;19.52;;;10.07;;
73599;SDS011;61877;48.246;9.220;2023-02-28T12:04:52;20.02;;;9.95;;
73599;SDS011;61877;48.246;9.220;2023-02-28T12:07:31;19.95;;;9.93;;
73599;SDS011;61877;48.246;9.220;2023-02-28T12:10:10;19.30;;;9.80;;
73599;SDS011;61877;48.246;9.220;2023-02-28T12:12:47;21.73;;;9.93;;
73599;SDS011;61877;48.246;9.220;2023-02-28T12:15:29;20.13;;;9.65;;
73599;SDS011;61877;48.246;9.220;2023-02-28T12:18:21;19.70;;;9.85;;
73599;SDS011;61877;48.246;9.220;2023-02-28T12:20:59;19.00;;;9.50;;
73599;SDS011;61877;48.246;9.220;2023-02-28T12:23:37;18.92;;;9.48;;
73599;SDS011;61877;48.246;9.220;2023-02-28T12:26:22;18.97;;;9.63;;
73599;SDS011;61877;48.246;9.220;2023-02-28T12:28:57;20.77;;;9.77;;
73599;SDS011;61877;48.246;9.220;2023-02-28T12:31:28;20.45;;;10.20;;
73599;SDS011;61877;48.246;9.220;2023-02-28T12:33:59;19.70;;;10.35;;
73599;SDS011;61877;48.246;9.220;2023-02-28T12:36:28;21.48;;;9.82;;
73599;SDS011;61877;48.246;9.220;2023-02-28T12:38:55;19.90;;;9.80;;
73599;SDS011;61877;48.246;9.220;2023-02-28T12:41:27;19.40;;;9.88;;
73599;SDS011;61877;48.246;9.220;2023-02-28T12:44:00;20.00;;;9.90;;
73599;SDS011;61877;48.246;9.220;2023-02-28T12:46:31;19.23;;;10.05;;
73599;SDS011;61877;48.246;9.220;2023-02-28T12:48:59;19.37;;;10.00;;
73599;SDS011;61877;48.246;9.220;2023-02-28T12:51:29;20.85;;;10.27;;
73599;SDS011;61877;48.246;9.220;2023-02-28T12:54:03;21.88;;;11.35;;
73599;SDS011;61877;48.246;9.220;2023-02-28T12:56:38;20.27;;;10.70;;
73599;SDS011;61877;48.246;9.220;2023-02-28T12:59:10;20.08;;;10.20;;
73599;SDS011;61877;48.246;9.220;2023-02-28T13:01:45;20.03;;;10.07;;
73599;SDS011;61877;48.246;9.220;2023-02-28T13:04:41;21.77;;;10.05;;
73599;SDS011;61877;48.246;9.220;2023-02-28T13:07:35;22.25;;;10.45;;
73599;SDS011;61877;48.246;9.220;2023-02-28T13:10:14;19.02;;;9.80;;
73599;SDS011;61877;48.246;9.220;2023-02-28T13:12:46;21.15;;;10.05;;
73599;SDS011;61877;48.246;9.220;2023-02-28T13:15:16;17.97;;;9.23;;
73599;SDS011;61877;48.246;9.220;2023-02-28T13:17:45;18.15;;;10.10;;
73599;SDS011;61877;48.246;9.220;2023-02-28T13:20:17;17.65;;;10.13;;
73599;SDS011;61877;48.246;9.220;2023-02-28T13:22:45;17.95;;;9.63;;
73599;SDS011;61877;48.246;9.220;2023-02-28T13:31:30;16.13;;;9.90;;
73599;SDS011;61877;48.246;9.220;2023-02-28T13:36:40;16.83;;;10.80;;
73599;SDS011;61877;48.246;9.220;2023-02-28T13:47:51;17.48;;;11.00;;
73599;SDS011;61877;48.246;9.220;2023-02-28T13:50:24;18.13;;;10.15;;
73599;SDS011;61877;48.246;9.220;2023-02-28T13:52:57;15.68;;;10.40;;
73599;SDS011;61877;48.246;9.220;2023-02-28T13:55:34;16.20;;;10.60;;
73599;SDS011;61877;48.246;9.220;2023-02-28T13:58:16;17.55;;;12.00;;
73599;SDS011;61877;48.246;9.220;2023-02-28T14:00:59;21.92;;;11.32;;
73599;SDS011;61877;48.246;9.220;2023-02-28T14:03:45;16.38;;;10.70;;
73599;SDS011;61877;48.246;9.220;2023-02-28T14:06:36;16.88;;;9.85;;
73599;SDS011;61877;48.246;9.220;2023-02-28T14:09:06;15.80;;;10.23;;
73599;SDS011;61877;48.246;9.220;2023-02-28T14:11:43;17.38;;;10.90;;
73599;SDS011;61877;48.246;9.220;2023-02-28T14:14:52;18.25;;;11.02;;
73599;SDS011;61877;48.246;9.220;2023-02-28T14:17:15;17.27;;;10.88;;
73599;SDS011;61877;48.246;9.220;2023-02-28T14:19:43;16.65;;;11.18;;
73599;SDS011;61877;48.246;9.220;2023-02-28T14:22:12;17.07;;;10.80;;
73599;SDS011;61877;48.246;9.220;2023-02-28T14:25:04;15.98;;;10.45;;
73599;SDS011;61877;48.246;9.220;2023-02-28T14:27:43;17.63;;;11.25;;
73599;SDS011;61877;48.246;9.220;2023-02-28T14:33:34;16.88;;;9.95;;
73599;SDS011;61877;48.246;9.220;2023-02-28T14:36:16;17.53;;;11.10;;
73599;SDS011;61877;48.246;9.220;2023-02-28T14:38:45;15.82;;;10.18;;
73599;SDS011;61877;48.246;9.220;2023-02-28T14:41:19;17.88;;;10.65;;
73599;SDS011;61877;48.246;9.220;2023-02-28T14:43:49;19.13;;;11.18;;
73599;SDS011;61877;48.246;9.220;2023-02-28T14:46:19;16.05;;;10.18;;
73599;SDS011;61877;48.246;9.220;2023-02-28T14:48:47;18.97;;;10.77;;
73599;SDS011;61877;48.246;9.220;2023-02-28T14:51:17;17.33;;;10.85;;
73599;SDS011;61877;48.246;9.220;2023-02-28T14:53:44;15.23;;;10.27;;
73599;SDS011;61877;48.246;9.220;2023-02-28T14:56:18;16.23;;;10.25;;
73599;SDS011;61877;48.246;9.220;2023-02-28T14:58:50;17.88;;;10.95;;
73599;SDS011;61877;48.246;9.220;2023-02-28T15:01:18;18.10;;;11.43;;
73599;SDS011;61877;48.246;9.220;2023-02-28T15:03:46;18.15;;;11.10;;
73599;SDS011;61877;48.246;9.220;2023-02-28T15:06:13;17.67;;;10.55;;
73599;SDS011;61877;48.246;9.220;2023-02-28T15:08:40;18.55;;;11.13;;
73599;SDS011;61877;48.246;9.220;2023-02-28T15:11:06;18.43;;;11.03;;
73599;SDS011;61877;48.246;9.220;2023-02-28T15:13:38;19.10;;;10.82;;